Time;durP1;ratioP1;P1;durP2;ratioP2;P2;SDS_P1;SDS_P2;PMS_P1;PMS_P2;Temp;Humidity;BMP_temperature;BMP_pressure;BME280_temperature;BME280_humidity;BME280_pressure;Samples;Min_cycle;Max_cycle;Signal;HPM_P1;HPM_P2
2022/08/05 00:01:39;;;;;;;4.00;3.70;;;23.70;99.90;;;;;;5094793;28;20636;-83
2022/08/05 00:04:06;;;;;;;7.13;4.10;;;23.70;99.90;;;;;;5090759;28;20637;-82
2022/08/05 00:06:33;;;;;;;6.80;4.00;;;23.70;99.90;;;;;;5086916;28;20720;-83
2022/08/05 00:09:01;;;;;;;4.10;3.80;;;23.60;99.90;;;;;;5080911;28;20675;-82
2022/08/05 00:11:28;;;;;;;4.53;4.03;;;23.70;99.90;;;;;;5089565;28;20684;-82
2022/08/05 00:13:55;;;;;;;4.40;4.10;;;23.60;99.90;;;;;;5093565;28;20615;-81
2022/08/05 00:16:22;;;;;;;4.60;4.30;;;23.60;99.90;;;;;;5093901;28;20642;-83
2022/08/05 00:18:49;;;;;;;4.47;4.03;;;23.60;99.90;;;;;;5092006;28;20625;-81
2022/08/05 00:21:17;;;;;;;3.80;3.50;;;23.60;99.90;;;;;;5095060;28;20734;-81
2022/08/05 00:23:46;;;;;;;4.37;3.87;;;23.50;99.90;;;;;;5080651;28;20631;-80
2022/08/05 00:26:18;;;;;;;4.50;4.10;;;23.50;99.90;;;;;;5095362;28;20638;-81
2022/08/05 00:28:45;;;;;;;4.47;3.93;;;23.40;99.90;;;;;;5095099;28;20679;-81
2022/08/05 00:31:12;;;;;;;3.67;3.37;;;23.50;99.90;;;;;;5088977;28;20658;-83
2022/08/05 00:33:39;;;;;;;3.50;3.30;;;23.40;99.90;;;;;;5092854;28;20616;-82
2022/08/05 00:36:06;;;;;;;4.47;4.17;;;23.40;99.90;;;;;;5100739;28;20638;-83
2022/08/05 00:38:33;;;;;;;5.83;3.93;;;23.40;99.90;;;;;;5093221;28;20634;-80
2022/08/05 00:40:59;;;;;;;4.30;4.00;;;23.30;99.90;;;;;;5101351;28;21004;-81
2022/08/05 00:43:29;;;;;;;3.37;3.17;;;23.20;99.90;;;;;;5093357;28;21189;-81
2022/08/05 00:45:56;;;;;;;4.30;3.90;;;23.20;99.90;;;;;;5096644;28;20634;-81
2022/08/05 00:48:26;;;;;;;3.83;3.60;;;23.20;99.90;;;;;;5096603;28;21189;-81
2022/08/05 00:50:53;;;;;;;4.73;3.73;;;23.20;99.90;;;;;;5094935;28;20656;-82
2022/08/05 00:53:22;;;;;;;3.90;3.60;;;23.10;99.90;;;;;;5097243;28;20667;-81
2022/08/05 00:55:49;;;;;;;4.10;3.70;;;23.10;99.90;;;;;;5091761;28;20632;-81
2022/08/05 00:58:17;;;;;;;4.20;3.80;;;23.10;99.90;;;;;;5096590;28;20665;-81
2022/08/05 01:00:46;;;;;;;3.80;3.60;;;23.10;99.90;;;;;;5097097;28;20674;-82
2022/08/05 01:03:13;;;;;;;3.70;3.40;;;23.00;99.90;;;;;;5090235;28;21050;-81
2022/08/05 01:05:40;;;;;;;5.67;4.37;;;23.00;99.90;;;;;;5084062;28;20624;-82
2022/08/05 01:08:07;;;;;;;5.03;4.20;;;23.00;99.90;;;;;;5099599;28;20637;-81
2022/08/05 01:10:41;;;;;;;4.07;3.70;;;23.00;99.90;;;;;;5088924;28;20984;-81
2022/08/05 01:13:14;;;;;;;3.93;3.57;;;23.00;99.90;;;;;;5092666;28;20663;-81
2022/08/05 01:15:50;;;;;;;4.20;3.80;;;23.10;99.90;;;;;;5090567;28;20635;-81
2022/08/05 01:18:23;;;;;;;5.03;4.67;;;23.20;99.90;;;;;;5098203;28;20630;-82
2022/08/05 01:20:58;;;;;;;4.87;4.33;;;23.40;99.90;;;;;;5087788;28;20653;-81
2022/08/05 01:23:36;;;;;;;5.00;4.60;;;23.50;99.90;;;;;;5090266;28;20626;-82
2022/08/05 01:26:17;;;;;;;5.20;4.70;;;23.60;99.90;;;;;;5088858;28;20757;-82
2022/08/05 01:28:49;;;;;;;3.40;3.10;;;23.60;99.90;;;;;;5097730;28;20620;-82
2022/08/05 01:31:23;;;;;;;5.10;4.07;;;23.70;99.90;;;;;;5090309;28;21218;-82
2022/08/05 01:33:56;;;;;;;3.73;3.43;;;23.80;99.90;;;;;;5085186;28;20607;-81
2022/08/05 01:36:32;;;;;;;5.17;3.30;;;23.90;99.90;;;;;;5091784;28;20646;-81
2022/08/05 01:38:59;;;;;;;4.90;2.87;;;24.00;99.90;;;;;;5095896;28;20621;-81
2022/08/05 01:41:32;;;;;;;8.57;3.37;;;24.00;99.90;;;;;;5091381;28;20650;-81
2022/08/05 01:44:01;;;;;;;5.57;2.63;;;24.00;99.90;;;;;;5090910;28;20650;-82
2022/08/05 01:46:30;;;;;;;5.50;2.70;;;24.00;99.60;;;;;;5095838;28;20627;-82
2022/08/05 01:49:00;;;;;;;8.43;3.13;;;24.10;99.50;;;;;;5095274;28;20623;-81
2022/08/05 01:51:30;;;;;;;3.20;2.90;;;24.00;99.50;;;;;;5095581;28;21375;-81
2022/08/05 01:53:59;;;;;;;3.20;2.93;;;24.10;99.70;;;;;;5096654;28;20619;-81
2022/08/05 01:56:30;;;;;;;7.80;2.83;;;24.10;99.90;;;;;;5093630;28;20635;-82
2022/08/05 01:58:58;;;;;;;3.47;3.17;;;24.10;99.90;;;;;;5099071;28;20622;-82
2022/08/05 02:01:28;;;;;;;5.33;2.70;;;24.00;99.90;;;;;;5094246;28;20659;-82
2022/08/05 02:03:56;;;;;;;3.43;2.73;;;24.10;99.90;;;;;;5094269;28;20688;-81
2022/08/05 02:06:23;;;;;;;4.73;2.87;;;24.00;99.90;;;;;;5098818;28;20622;-82
2022/08/05 02:08:50;;;;;;;3.80;2.90;;;24.00;99.90;;;;;;5092016;28;20635;-81
2022/08/05 02:11:18;;;;;;;4.00;3.47;;;24.00;99.90;;;;;;5094749;28;20647;-82
2022/08/05 02:13:53;;;;;;;3.47;2.93;;;24.00;99.90;;;;;;5093949;28;20649;-81
2022/08/05 02:16:22;;;;;;;4.03;2.77;;;24.00;99.90;;;;;;5086491;28;20632;-82
2022/08/05 02:18:54;;;;;;;3.73;2.37;;;24.00;99.90;;;;;;5081153;28;20624;-82
2022/08/05 02:21:26;;;;;;;12.20;2.90;;;24.00;99.90;;;;;;5097072;28;20642;-82
2022/08/05 02:23:56;;;;;;;2.47;2.20;;;24.00;99.90;;;;;;5090419;28;20625;-82
2022/08/05 02:26:33;;;;;;;2.67;2.33;;;23.90;99.90;;;;;;5092525;28;20612;-82
2022/08/05 02:29:01;;;;;;;4.33;2.40;;;23.90;99.90;;;;;;5099095;28;20619;-82
2022/08/05 02:31:31;;;;;;;3.73;2.50;;;23.90;99.90;;;;;;5092712;28;20662;-81
2022/08/05 02:34:03;;;;;;;4.20;3.00;;;23.90;99.90;;;;;;5093341;28;20671;-81
2022/08/05 02:36:34;;;;;;;5.83;3.10;;;23.90;99.90;;;;;;5089802;28;20627;-81
2022/08/05 02:39:04;;;;;;;11.27;2.90;;;23.90;99.90;;;;;;5088535;28;20626;-82
2022/08/05 02:41:33;;;;;;;8.13;3.40;;;23.90;99.90;;;;;;5092040;28;20691;-82
2022/08/05 02:44:01;;;;;;;3.93;2.20;;;23.80;99.90;;;;;;5086737;28;20643;-81
2022/08/05 02:46:28;;;;;;;9.10;3.20;;;23.80;99.90;;;;;;5090479;28;20647;-81
2022/08/05 02:48:57;;;;;;;13.63;3.30;;;23.80;99.90;;;;;;5096177;28;20632;-82
2022/08/05 02:51:26;;;;;;;4.97;2.83;;;23.80;99.90;;;;;;5093436;28;20673;-81
2022/08/05 02:53:54;;;;;;;8.37;3.03;;;23.70;99.90;;;;;;5089746;28;20672;-81
2022/08/05 02:56:21;;;;;;;4.77;3.20;;;23.70;99.90;;;;;;5083689;28;20642;-82
2022/08/05 02:58:50;;;;;;;4.73;2.87;;;23.70;99.90;;;;;;5091057;28;20628;-81
2022/08/05 03:01:21;;;;;;;7.07;2.40;;;23.60;99.90;;;;;;5090956;28;21207;-82
2022/08/05 03:03:52;;;;;;;9.03;2.80;;;23.50;99.90;;;;;;5092399;28;21362;-82
2022/08/05 03:06:21;;;;;;;5.37;2.57;;;23.40;99.90;;;;;;5095786;28;20625;-82
2022/08/05 03:08:50;;;;;;;4.47;2.87;;;23.40;99.90;;;;;;5094452;28;20628;-82
2022/08/05 03:11:18;;;;;;;4.90;2.70;;;23.30;99.90;;;;;;5089461;28;21285;-82
2022/08/05 03:13:45;;;;;;;4.97;3.10;;;23.20;99.90;;;;;;5088539;28;21016;-82
2022/08/05 03:16:12;;;;;;;3.53;2.87;;;23.20;99.90;;;;;;5084864;28;20636;-82
2022/08/05 03:18:39;;;;;;;4.80;3.13;;;23.20;99.90;;;;;;5088150;28;20631;-82
2022/08/05 03:21:06;;;;;;;5.80;3.00;;;23.20;99.90;;;;;;5097344;28;20658;-81
2022/08/05 03:23:34;;;;;;;6.77;2.80;;;23.10;99.90;;;;;;5082076;28;20632;-82
2022/08/05 03:26:03;;;;;;;3.30;2.30;;;23.10;99.90;;;;;;5077315;28;20682;-82
2022/08/05 03:28:31;;;;;;;4.33;2.70;;;23.00;99.90;;;;;;5093173;28;20622;-82
2022/08/05 03:30:59;;;;;;;2.70;2.50;;;23.00;99.90;;;;;;5096299;28;20643;-82
2022/08/05 03:33:26;;;;;;;3.30;2.83;;;22.90;99.90;;;;;;5093038;28;21193;-82
2022/08/05 03:35:55;;;;;;;4.10;3.07;;;22.90;99.90;;;;;;5090964;28;20841;-81
2022/08/05 03:38:23;;;;;;;8.70;3.40;;;22.80;99.90;;;;;;5092660;28;20687;-81
2022/08/05 03:40:51;;;;;;;4.43;2.50;;;22.80;99.90;;;;;;5091725;28;20685;-82
2022/08/05 03:43:23;;;;;;;5.77;2.97;;;22.70;99.90;;;;;;5088728;28;20729;-81
2022/08/05 03:45:50;;;;;;;4.60;3.40;;;22.70;99.90;;;;;;5092069;28;20664;-81
2022/08/05 03:48:17;;;;;;;3.03;2.20;;;22.60;99.90;;;;;;5096428;28;20646;-81
2022/08/05 03:50:50;;;;;;;8.13;3.47;;;22.60;99.90;;;;;;5090794;28;20739;-81
2022/08/05 03:53:28;;;;;;;5.43;2.83;;;22.60;99.90;;;;;;5088655;28;20647;-81
2022/08/05 03:56:03;;;;;;;5.43;3.63;;;22.50;99.90;;;;;;5093340;28;20644;-82
2022/08/05 03:58:34;;;;;;;4.73;2.77;;;22.50;99.90;;;;;;5094042;28;20607;-82
2022/08/05 04:01:04;;;;;;;4.30;3.03;;;22.50;99.90;;;;;;5098654;28;20642;-82
2022/08/05 04:03:34;;;;;;;3.67;3.13;;;22.50;99.90;;;;;;5089361;28;21628;-81
2022/08/05 04:06:01;;;;;;;2.97;2.70;;;22.40;99.90;;;;;;5090366;28;21012;-82
2022/08/05 04:08:29;;;;;;;6.03;3.00;;;22.40;99.90;;;;;;5093950;28;20632;-82
2022/08/05 04:10:57;;;;;;;6.07;2.70;;;22.40;99.90;;;;;;5091951;28;20655;-81
2022/08/05 04:13:24;;;;;;;5.73;3.77;;;22.30;99.90;;;;;;5091261;28;20745;-82
2022/08/05 04:15:52;;;;;;;3.97;2.77;;;22.20;99.90;;;;;;5090665;28;20648;-81
2022/08/05 04:18:23;;;;;;;7.83;3.50;;;22.20;99.90;;;;;;5092148;28;20607;-82
2022/08/05 04:20:54;;;;;;;5.80;3.20;;;22.20;99.90;;;;;;5090140;28;20665;-82
2022/08/05 04:23:23;;;;;;;6.23;3.60;;;22.20;99.90;;;;;;5082875;28;20717;-82
2022/08/05 04:25:50;;;;;;;6.37;3.47;;;22.20;99.90;;;;;;5084141;28;20687;-82
2022/08/05 04:28:17;;;;;;;6.00;3.20;;;22.20;99.90;;;;;;5096226;28;20649;-82
2022/08/05 04:30:44;;;;;;;4.60;3.30;;;22.10;99.90;;;;;;5089865;28;21185;-82
2022/08/05 04:33:12;;;;;;;4.20;3.30;;;22.10;99.90;;;;;;5093496;28;20724;-82
2022/08/05 04:35:39;;;;;;;4.70;3.70;;;22.10;99.90;;;;;;5092631;28;20677;-82
2022/08/05 04:38:06;;;;;;;3.77;3.47;;;22.10;99.90;;;;;;5091874;28;20780;-82
2022/08/05 04:40:34;;;;;;;4.10;3.27;;;22.10;99.90;;;;;;5090158;28;20660;-82
2022/08/05 04:43:01;;;;;;;4.80;3.50;;;22.10;99.90;;;;;;5084520;28;20628;-82
2022/08/05 04:45:28;;;;;;;4.53;3.80;;;22.20;99.90;;;;;;5087741;28;20628;-82
2022/08/05 04:47:55;;;;;;;4.57;3.40;;;22.10;99.90;;;;;;5092694;28;20643;-82
2022/08/05 04:50:23;;;;;;;6.80;3.60;;;22.20;99.90;;;;;;5088905;28;20737;-82
2022/08/05 04:52:50;;;;;;;4.00;3.20;;;22.20;99.90;;;;;;5092175;28;20674;-82
2022/08/05 04:55:17;;;;;;;3.97;3.23;;;22.20;99.90;;;;;;5094452;28;20630;-82
2022/08/05 04:57:46;;;;;;;8.10;3.67;;;22.20;99.90;;;;;;5076481;28;20633;-82
2022/08/05 05:00:14;;;;;;;4.23;3.40;;;22.10;99.90;;;;;;5092930;28;21012;-82
2022/08/05 05:02:41;;;;;;;9.70;3.80;;;22.10;99.90;;;;;;5088859;28;20664;-82
2022/08/05 05:05:08;;;;;;;6.60;3.80;;;22.10;99.90;;;;;;5085930;28;20624;-82
2022/08/05 05:07:36;;;;;;;3.87;3.57;;;22.10;99.90;;;;;;5082765;28;20743;-83
2022/08/05 05:10:05;;;;;;;6.07;3.63;;;22.10;99.90;;;;;;5086750;28;20653;-82
2022/08/05 05:12:32;;;;;;;4.53;3.33;;;22.10;99.90;;;;;;5088937;28;20758;-82
2022/08/05 05:14:59;;;;;;;9.93;4.23;;;22.20;99.90;;;;;;5085688;28;20643;-82
2022/08/05 05:17:25;;;;;;;12.87;3.87;;;22.20;99.90;;;;;;5079143;28;20627;-82
2022/08/05 05:19:54;;;;;;;6.10;3.67;;;22.20;99.90;;;;;;5086931;28;20648;-82
2022/08/05 05:22:21;;;;;;;4.63;3.47;;;22.20;99.90;;;;;;5090195;28;21221;-82
2022/08/05 05:24:49;;;;;;;10.87;3.90;;;22.30;99.90;;;;;;5081648;28;20617;-82
2022/08/05 05:27:16;;;;;;;4.53;3.57;;;22.30;99.90;;;;;;5092067;28;20694;-82
2022/08/05 05:29:43;;;;;;;9.00;3.83;;;22.50;99.90;;;;;;5091712;28;20647;-82
2022/08/05 05:32:10;;;;;;;5.67;3.23;;;22.60;99.90;;;;;;5096997;28;20625;-83
2022/08/05 05:34:37;;;;;;;6.07;3.80;;;22.70;99.90;;;;;;5087375;28;20671;-82
2022/08/05 05:37:04;;;;;;;5.43;3.90;;;22.80;99.90;;;;;;5085092;28;20727;-83
2022/08/05 05:39:30;;;;;;;7.00;4.03;;;22.90;99.90;;;;;;5088823;28;20651;-82
2022/08/05 05:41:59;;;;;;;6.47;4.37;;;22.90;99.90;;;;;;5093062;28;21293;-81
2022/08/05 05:44:25;;;;;;;7.37;3.97;;;23.10;99.90;;;;;;5089797;28;20626;-82
2022/08/05 05:46:52;;;;;;;4.93;3.80;;;23.20;99.90;;;;;;5091133;28;20637;-82
2022/08/05 05:49:19;;;;;;;7.63;3.80;;;23.30;99.90;;;;;;5095143;28;20977;-82
2022/08/05 05:51:46;;;;;;;5.70;5.20;;;23.40;99.90;;;;;;5068636;28;20625;-82
2022/08/05 05:54:12;;;;;;;8.53;3.83;;;23.40;99.90;;;;;;5094061;28;20665;-82
2022/08/05 05:56:39;;;;;;;7.10;4.60;;;23.50;99.90;;;;;;5090803;28;20653;-82
2022/08/05 05:59:08;;;;;;;12.00;4.47;;;23.60;99.90;;;;;;5097373;28;20631;-82
2022/08/05 06:01:36;;;;;;;5.10;4.00;;;23.70;99.90;;;;;;5089284;28;21160;-82
2022/08/05 06:04:03;;;;;;;5.20;4.60;;;23.80;99.90;;;;;;5088590;28;20611;-82
2022/08/05 06:06:29;;;;;;;10.67;4.17;;;23.90;99.90;;;;;;5096445;28;20624;-82
2022/08/05 06:08:56;;;;;;;4.50;3.87;;;24.00;99.90;;;;;;5094126;28;20636;-82
2022/08/05 06:11:23;;;;;;;7.93;4.93;;;24.10;99.90;;;;;;5095911;28;20664;-82
2022/08/05 06:13:50;;;;;;;7.83;5.03;;;24.20;99.90;;;;;;5093019;28;21191;-81
2022/08/05 06:16:18;;;;;;;4.40;4.03;;;24.30;99.90;;;;;;5093862;28;21431;-82
2022/08/05 06:18:45;;;;;;;5.63;4.30;;;24.40;99.90;;;;;;5095863;28;20635;-82
2022/08/05 06:21:12;;;;;;;7.53;3.97;;;24.50;99.90;;;;;;5091691;28;20673;-82
2022/08/05 06:23:38;;;;;;;3.50;3.30;;;24.50;99.90;;;;;;5085879;28;20612;-82
2022/08/05 06:26:06;;;;;;;4.80;3.27;;;24.60;99.90;;;;;;5096423;28;20709;-82
2022/08/05 06:28:33;;;;;;;6.00;3.70;;;24.80;99.90;;;;;;5093131;28;20725;-82
2022/08/05 06:31:00;;;;;;;4.40;3.50;;;24.80;99.90;;;;;;5090543;28;20663;-81
2022/08/05 06:33:28;;;;;;;4.57;3.80;;;25.00;99.90;;;;;;5080367;28;20653;-82
2022/08/05 06:35:55;;;;;;;4.53;3.67;;;25.00;99.90;;;;;;5088977;28;20645;-82
2022/08/05 06:38:21;;;;;;;4.10;3.50;;;25.00;99.90;;;;;;5092162;28;20751;-82
2022/08/05 06:40:48;;;;;;;3.47;3.17;;;25.10;99.90;;;;;;5089090;28;20641;-82
2022/08/05 06:43:15;;;;;;;5.30;3.20;;;25.20;99.90;;;;;;5093920;28;20628;-82
2022/08/05 06:45:42;;;;;;;3.90;3.57;;;25.30;99.90;;;;;;5091751;28;20648;-82
2022/08/05 06:48:09;;;;;;;5.93;3.40;;;25.40;99.90;;;;;;5096520;28;20619;-82
2022/08/05 06:50:38;;;;;;;3.47;3.07;;;25.40;99.90;;;;;;5094051;28;20736;-82
2022/08/05 06:53:04;;;;;;;3.93;3.50;;;25.50;99.90;;;;;;5095966;28;20624;-82
2022/08/05 06:55:31;;;;;;;4.43;2.90;;;25.50;99.90;;;;;;5096008;28;20631;-82
2022/08/05 06:57:58;;;;;;;3.70;3.40;;;25.60;99.90;;;;;;5092864;28;20631;-82
2022/08/05 07:00:24;;;;;;;3.60;3.27;;;25.70;99.90;;;;;;5095462;28;20650;-82
2022/08/05 07:02:52;;;;;;;3.40;3.10;;;25.80;99.90;;;;;;5088313;28;20728;-82
2022/08/05 07:05:19;;;;;;;3.47;3.17;;;25.90;99.90;;;;;;5076298;28;21199;-82
2022/08/05 07:07:49;;;;;;;5.43;3.30;;;26.10;99.90;;;;;;5081480;28;20621;-81
2022/08/05 07:10:16;;;;;;;3.50;3.20;;;26.20;99.90;;;;;;5089260;28;21600;-82
2022/08/05 07:18:20;;;;;;;4.17;3.23;;;26.40;99.40;;;;;;5087676;28;20640;-82
2022/08/05 07:20:47;;;;;;;6.30;3.23;;;26.40;99.10;;;;;;5083155;28;20657;-81
2022/08/05 07:23:15;;;;;;;3.43;3.23;;;26.40;98.90;;;;;;5080628;28;20664;-82
2022/08/05 07:25:42;;;;;;;3.60;2.63;;;26.30;98.90;;;;;;5086085;28;20681;-82
2022/08/05 07:28:09;;;;;;;3.23;2.90;;;26.30;98.30;;;;;;5089972;28;20645;-82
2022/08/05 07:30:37;;;;;;;3.33;2.90;;;26.40;98.40;;;;;;5080938;28;20666;-82
2022/08/05 07:33:06;;;;;;;4.87;3.00;;;26.40;98.80;;;;;;5081711;28;20720;-82
2022/08/05 07:35:33;;;;;;;5.70;3.87;;;26.50;98.50;;;;;;5086960;28;21200;-81
2022/08/05 07:38:00;;;;;;;3.53;3.13;;;26.60;99.00;;;;;;5087191;28;20627;-81
2022/08/05 07:40:28;;;;;;;6.77;3.07;;;26.60;98.80;;;;;;5081610;28;20652;-82
2022/08/05 07:42:55;;;;;;;5.27;3.60;;;26.60;98.20;;;;;;5080568;28;20628;-81
2022/08/05 07:45:22;;;;;;;3.90;3.60;;;26.70;98.20;;;;;;5086206;28;20628;-81
2022/08/05 07:47:49;;;;;;;5.77;3.30;;;26.80;97.60;;;;;;5084730;28;20629;-81
2022/08/05 07:50:15;;;;;;;4.53;3.47;;;26.80;96.90;;;;;;5084659;28;20655;-81
2022/08/05 07:52:43;;;;;;;4.70;3.57;;;26.80;97.30;;;;;;5079436;28;20628;-82
2022/08/05 07:55:10;;;;;;;5.37;3.50;;;26.80;97.00;;;;;;5079345;28;20674;-82
2022/08/05 07:57:38;;;;;;;6.27;3.97;;;26.90;97.20;;;;;;5083443;28;20611;-82
2022/08/05 08:00:07;;;;;;;6.17;3.00;;;27.00;97.40;;;;;;5092340;28;20655;-81
2022/08/05 08:02:34;;;;;;;6.13;3.43;;;27.00;96.90;;;;;;5082066;28;20637;-81
2022/08/05 08:05:01;;;;;;;2.90;2.70;;;27.10;96.70;;;;;;5075954;28;21151;-81
2022/08/05 08:07:28;;;;;;;4.97;3.50;;;27.20;96.70;;;;;;5081554;28;20650;-82
2022/08/05 08:09:55;;;;;;;3.60;3.30;;;27.30;96.10;;;;;;5084318;28;21011;-82
2022/08/05 08:12:22;;;;;;;3.43;3.13;;;27.40;96.20;;;;;;5085254;28;20630;-82
2022/08/05 08:14:50;;;;;;;3.40;2.90;;;27.40;95.10;;;;;;5079386;28;20742;-82
2022/08/05 08:17:17;;;;;;;3.10;2.90;;;27.40;94.20;;;;;;5084314;28;20612;-82
2022/08/05 08:19:45;;;;;;;3.70;2.90;;;27.40;94.30;;;;;;5084615;28;20738;-82
2022/08/05 08:22:12;;;;;;;4.23;3.00;;;27.50;93.70;;;;;;5083204;28;20708;-82
2022/08/05 08:24:40;;;;;;;2.60;2.40;;;27.50;93.30;;;;;;5085165;28;20632;-82
2022/08/05 08:27:08;;;;;;;2.70;2.50;;;27.50;93.30;;;;;;5080613;28;20675;-80
2022/08/05 08:29:35;;;;;;;2.57;2.37;;;27.70;93.40;;;;;;5071064;28;20658;-81
2022/08/05 08:32:03;;;;;;;5.00;2.63;;;27.80;92.80;;;;;;5078852;28;20635;-81
2022/08/05 08:34:30;;;;;;;2.80;2.50;;;27.90;92.30;;;;;;5085336;28;20682;-82
2022/08/05 08:36:59;;;;;;;2.50;2.30;;;28.00;92.10;;;;;;5077476;28;20726;-82
2022/08/05 08:39:26;;;;;;;2.17;2.03;;;28.10;91.20;;;;;;5081099;28;20627;-82
2022/08/05 08:41:55;;;;;;;2.53;2.33;;;28.20;90.00;;;;;;5083209;28;20632;-82
2022/08/05 08:44:24;;;;;;;2.50;2.30;;;28.30;90.00;;;;;;5091245;28;21197;-82
2022/08/05 08:46:51;;;;;;;2.80;2.10;;;28.40;88.90;;;;;;5082419;28;20703;-82
2022/08/05 08:49:23;;;;;;;2.60;2.40;;;28.50;85.40;;;;;;5074546;28;20989;-82
2022/08/05 08:51:56;;;;;;;2.53;2.33;;;28.40;84.40;;;;;;5086362;28;20641;-82
2022/08/05 08:54:22;;;;;;;2.37;2.10;;;28.40;84.20;;;;;;5082590;28;20678;-82
2022/08/05 08:56:49;;;;;;;3.00;1.97;;;28.30;84.10;;;;;;5081080;28;20652;-82
2022/08/05 08:59:19;;;;;;;3.23;2.03;;;28.50;84.30;;;;;;5088364;28;21005;-81
2022/08/05 09:01:46;;;;;;;2.70;2.50;;;28.50;82.50;;;;;;5081770;28;20623;-81
2022/08/05 09:04:14;;;;;;;3.20;2.13;;;28.50;83.10;;;;;;5082407;28;20620;-81
2022/08/05 09:06:44;;;;;;;2.70;2.50;;;28.70;83.10;;;;;;5074654;28;20990;-81
2022/08/05 09:09:11;;;;;;;3.00;2.10;;;28.70;81.70;;;;;;5080227;28;20723;-81
2022/08/05 09:11:38;;;;;;;2.97;2.13;;;28.80;82.00;;;;;;5085609;28;20619;-81
2022/08/05 09:14:05;;;;;;;2.60;2.33;;;28.90;81.20;;;;;;5089541;28;20615;-80
2022/08/05 09:16:33;;;;;;;2.23;1.80;;;29.00;80.80;;;;;;5083710;28;21437;-81
2022/08/05 09:18:59;;;;;;;4.30;2.30;;;29.10;80.80;;;;;;5088058;28;21193;-81
2022/08/05 09:21:27;;;;;;;2.93;2.23;;;29.30;80.80;;;;;;5090544;28;21203;-80
2022/08/05 09:24:07;;;;;;;2.83;2.40;;;29.60;80.60;;;;;;5081287;28;20625;-81
2022/08/05 09:26:35;;;;;;;2.67;2.07;;;29.70;80.40;;;;;;5087009;28;20631;-81
2022/08/05 09:29:05;;;;;;;2.63;2.10;;;29.80;78.40;;;;;;5086571;28;20616;-81
2022/08/05 09:31:32;;;;;;;2.03;1.93;;;29.80;76.50;;;;;;5085208;28;20743;-82
2022/08/05 09:34:01;;;;;;;2.73;2.43;;;29.80;76.20;;;;;;5090765;28;21209;-81
2022/08/05 09:36:44;;;;;;;3.73;2.20;;;29.80;77.20;;;;;;5089424;28;20624;-81
2022/08/05 09:39:13;;;;;;;2.77;2.40;;;30.00;76.80;;;;;;5080758;28;20705;-81
2022/08/05 09:41:57;;;;;;;2.17;1.97;;;30.10;76.00;;;;;;5088664;28;20628;-81
2022/08/05 09:44:38;;;;;;;2.63;2.30;;;30.10;75.50;;;;;;5088135;28;20705;-81
2022/08/05 09:47:11;;;;;;;3.13;2.50;;;30.20;76.10;;;;;;5084297;28;20620;-82
2022/08/05 09:49:43;;;;;;;1.80;1.70;;;30.30;74.20;;;;;;5083373;28;20650;-82
2022/08/05 09:52:30;;;;;;;4.50;2.20;;;30.40;72.70;;;;;;5091140;28;20615;-82
2022/08/05 09:55:01;;;;;;;2.90;2.10;;;30.30;72.20;;;;;;5084147;28;21207;-81
2022/08/05 09:57:37;;;;;;;2.13;2.00;;;30.20;71.80;;;;;;5085160;28;20627;-82
2022/08/05 10:00:10;;;;;;;3.00;2.50;;;30.20;71.10;;;;;;5061133;28;20667;-82
2022/08/05 10:02:38;;;;;;;4.70;2.40;;;30.40;71.80;;;;;;5085223;28;20623;-82
2022/08/05 10:05:08;;;;;;;3.17;2.93;;;30.40;71.20;;;;;;5077506;28;21173;-82
2022/08/05 10:07:50;;;;;;;3.10;2.20;;;30.40;70.80;;;;;;5081233;28;20641;-82
2022/08/05 10:10:20;;;;;;;2.03;1.90;;;30.30;71.00;;;;;;5086245;28;20969;-82
2022/08/05 10:12:49;;;;;;;2.10;2.00;;;30.30;70.10;;;;;;5084268;28;20637;-82
2022/08/05 10:15:22;;;;;;;2.53;2.33;;;30.50;70.00;;;;;;5087135;28;20668;-81
2022/08/05 10:18:12;;;;;;;2.60;2.03;;;30.70;71.20;;;;;;5087538;28;20609;-82
2022/08/05 10:20:42;;;;;;;4.50;2.50;;;30.90;71.80;;;;;;5083325;28;20662;-81
2022/08/05 10:23:11;;;;;;;3.13;2.17;;;31.00;69.00;;;;;;5081218;28;20766;-82
2022/08/05 10:25:39;;;;;;;2.20;2.03;;;31.00;68.30;;;;;;5077914;28;21146;-82
2022/08/05 10:28:07;;;;;;;2.33;2.13;;;31.10;67.80;;;;;;5088873;28;20690;-81
2022/08/05 10:30:36;;;;;;;2.90;2.07;;;31.30;68.50;;;;;;5085501;28;20659;-81
2022/08/05 10:33:03;;;;;;;3.23;1.80;;;31.50;67.60;;;;;;5084571;28;20887;-81
2022/08/05 10:35:31;;;;;;;2.20;2.10;;;31.60;68.50;;;;;;5087444;28;20647;-82
2022/08/05 10:37:59;;;;;;;4.07;2.30;;;31.60;65.60;;;;;;5085675;28;20642;-81
2022/08/05 10:40:33;;;;;;;2.63;2.40;;;31.70;65.50;;;;;;5084544;28;20655;-82
2022/08/05 10:43:09;;;;;;;2.63;2.20;;;31.80;65.20;;;;;;5084190;28;20636;-82
2022/08/05 10:45:36;;;;;;;3.00;2.20;;;31.90;65.80;;;;;;5081815;28;20614;-82
2022/08/05 10:48:30;;;;;;;2.73;1.90;;;32.20;64.20;;;;;;5083873;28;20619;-82
2022/08/05 10:51:03;;;;;;;2.60;2.40;;;32.40;63.80;;;;;;5079850;28;20664;-81
2022/08/05 10:53:38;;;;;;;2.67;2.10;;;32.70;64.00;;;;;;5085487;28;20623;-82
2022/08/05 10:56:06;;;;;;;3.73;2.40;;;32.90;63.30;;;;;;5084818;28;20646;-82
2022/08/05 10:58:35;;;;;;;3.30;2.30;;;33.10;61.70;;;;;;5085403;28;20662;-81
2022/08/05 11:01:07;;;;;;;2.73;2.33;;;33.00;60.50;;;;;;5081201;28;20742;-82
2022/08/05 11:03:34;;;;;;;2.80;2.40;;;32.70;60.40;;;;;;5084117;28;20616;-82
2022/08/05 11:06:07;;;;;;;2.60;2.03;;;32.80;60.10;;;;;;5070334;28;20647;-82
2022/08/05 11:08:34;;;;;;;6.40;2.37;;;32.90;61.20;;;;;;5084032;28;20626;-81
2022/08/05 11:11:32;;;;;;;4.33;2.47;;;33.10;60.30;;;;;;5079123;28;20752;-82
2022/08/05 11:14:01;;;;;;;2.23;2.13;;;33.30;59.70;;;;;;5081204;28;20732;-81
2022/08/05 11:16:28;;;;;;;3.20;2.20;;;33.50;59.00;;;;;;5080987;28;21271;-82
2022/08/05 11:19:27;;;;;;;3.13;2.50;;;33.70;60.00;;;;;;5082036;28;20624;-82
2022/08/05 11:21:55;;;;;;;2.60;2.40;;;34.20;58.40;;;;;;5081363;28;20689;-81
2022/08/05 11:24:22;;;;;;;5.30;2.20;;;34.60;58.70;;;;;;5087946;28;20610;-81
2022/08/05 11:26:51;;;;;;;3.73;2.60;;;34.70;56.60;;;;;;5084755;28;21026;-81
2022/08/05 11:29:39;;;;;;;2.27;2.07;;;34.70;55.70;;;;;;5083217;28;20652;-81
2022/08/05 11:32:27;;;;;;;2.10;2.00;;;35.10;56.30;;;;;;5085677;28;20629;-81
2022/08/05 11:34:54;;;;;;;3.70;2.50;;;35.20;54.90;;;;;;5084914;28;20651;-81
2022/08/05 11:38:05;;;;;;;2.53;2.20;;;35.60;55.80;;;;;;5080146;28;20624;-81
2022/08/05 11:41:01;;;;;;;2.60;2.40;;;36.00;54.10;;;;;;5086966;28;20751;-81
2022/08/05 11:43:29;;;;;;;2.90;2.57;;;36.10;53.40;;;;;;5098113;28;20675;-81
2022/08/05 11:45:57;;;;;;;3.47;2.37;;;36.20;53.20;;;;;;5091399;28;20742;-81
2022/08/05 11:48:25;;;;;;;2.27;2.07;;;35.70;53.20;;;;;;5063886;28;20669;-81
2022/08/05 11:50:53;;;;;;;8.23;2.23;;;35.90;52.80;;;;;;5083974;28;20305;-81
2022/08/05 11:53:22;;;;;;;2.30;2.20;;;36.20;53.40;;;;;;5086804;28;20710;-81
2022/08/05 11:55:58;;;;;;;2.20;2.00;;;36.40;52.00;;;;;;5080028;28;20218;-81
2022/08/05 11:58:29;;;;;;;6.27;2.30;;;36.30;51.10;;;;;;5082217;28;20200;-81
2022/08/05 12:01:08;;;;;;;2.27;2.07;;;36.10;51.40;;;;;;5083012;28;20741;-81
2022/08/05 12:03:43;;;;;;;4.80;2.47;;;36.60;51.40;;;;;;5072778;28;20578;-81
2022/08/05 12:06:10;;;;;;;2.27;2.07;;;36.90;50.60;;;;;;5076127;28;20196;-81
2022/08/05 12:08:42;;;;;;;3.93;2.70;;;37.00;50.30;;;;;;5083829;28;20217;-81
2022/08/05 12:11:10;;;;;;;2.65;2.10;;;37.00;50.20;;;;;;5077692;28;20409;-81
2022/08/05 12:13:38;;;;;;;2.10;1.93;;;37.20;49.60;;;;;;5081766;28;20200;-81
2022/08/05 12:16:08;;;;;;;4.10;2.00;;;37.50;48.90;;;;;;5085037;28;20666;-81
2022/08/05 12:18:38;;;;;;;2.42;2.22;;;37.60;48.50;;;;;;5084638;28;20209;-81
2022/08/05 12:21:14;;;;;;;2.28;2.00;;;37.70;48.40;;;;;;5075759;28;20721;-81
2022/08/05 12:23:51;;;;;;;2.88;2.28;;;37.80;47.90;;;;;;5076307;28;20216;-81
2022/08/05 12:26:17;;;;;;;3.42;2.63;;;37.50;47.90;;;;;;5086987;28;20196;-81
2022/08/05 12:28:44;;;;;;;2.00;1.90;;;37.70;48.10;;;;;;5084452;28;20205;-81
2022/08/05 12:31:13;;;;;;;3.58;1.83;;;37.90;49.00;;;;;;5078900;28;20230;-81
2022/08/05 12:33:40;;;;;;;3.28;2.33;;;38.30;47.20;;;;;;5083332;28;20189;-81
2022/08/05 12:36:08;;;;;;;2.53;2.33;;;38.10;47.20;;;;;;5083738;28;20718;-81
2022/08/05 12:38:37;;;;;;;2.50;2.30;;;38.40;47.50;;;;;;5074795;28;20205;-80
2022/08/05 12:41:06;;;;;;;2.92;2.40;;;38.90;46.50;;;;;;5081983;28;20221;-81
2022/08/05 12:43:35;;;;;;;2.13;2.03;;;39.00;45.90;;;;;;5084766;28;20196;-81
2022/08/05 12:46:01;;;;;;;2.03;1.83;;;38.60;45.70;;;;;;5079983;28;20194;-81
2022/08/05 12:48:39;;;;;;;2.72;2.40;;;38.70;45.20;;;;;;5081016;28;20189;-81
2022/08/05 12:51:16;;;;;;;2.83;2.20;;;39.40;45.50;;;;;;5082228;28;20225;-81
2022/08/05 12:53:44;;;;;;;2.95;2.65;;;40.10;45.40;;;;;;5081446;28;20241;-81
2022/08/05 12:56:19;;;;;;;2.08;1.98;;;40.50;43.40;;;;;;5078939;28;20218;-81
2022/08/05 12:58:45;;;;;;;1.80;1.70;;;40.40;42.50;;;;;;5081754;28;20202;-81
2022/08/05 13:01:15;;;;;;;2.08;1.88;;;40.40;41.40;;;;;;5086138;28;20217;-81
2022/08/05 13:03:46;;;;;;;5.00;2.00;;;40.60;42.40;;;;;;5078359;28;20208;-81